sensor_id;sensor_type;location;lat;lon;timestamp;pressure;altitude;pressure_sealevel;temperature;humidity
76553;BME280;65395;53.168;18.156;2023-07-09T00:02:02;101552.10;;;14.01;68.40
76553;BME280;65395;53.168;18.156;2023-07-09T00:04:29;101551.70;;;13.96;68.40
76553;BME280;65395;53.168;18.156;2023-07-09T00:07:01;101552.63;;;13.90;68.79
76553;BME280;65395;53.168;18.156;2023-07-09T00:09:28;101552.53;;;13.84;69.00
76553;BME280;65395;53.168;18.156;2023-07-09T00:11:55;101554.58;;;13.77;69.38
76553;BME280;65395;53.168;18.156;2023-07-09T00:14:22;101552.80;;;13.71;69.54
76553;BME280;65395;53.168;18.156;2023-07-09T00:16:49;101551.69;;;13.66;69.89
76553;BME280;65395;53.168;18.156;2023-07-09T00:19:20;101551.05;;;13.61;70.20
76553;BME280;65395;53.168;18.156;2023-07-09T00:21:48;101549.94;;;13.57;70.31
76553;BME280;65395;53.168;18.156;2023-07-09T00:24:17;101553.95;;;13.53;70.16
76553;BME280;65395;53.168;18.156;2023-07-09T00:26:44;101555.92;;;13.49;70.39
76553;BME280;65395;53.168;18.156;2023-07-09T00:29:16;101551.05;;;13.43;70.50
76553;BME280;65395;53.168;18.156;2023-07-09T00:31:43;101553.91;;;13.38;70.91
76553;BME280;65395;53.168;18.156;2023-07-09T00:34:12;101549.83;;;13.34;71.16
76553;BME280;65395;53.168;18.156;2023-07-09T00:36:40;101548.29;;;13.29;71.29
76553;BME280;65395;53.168;18.156;2023-07-09T00:39:16;101550.83;;;13.25;71.39
76553;BME280;65395;53.168;18.156;2023-07-09T00:41:45;101549.96;;;13.21;71.32
76553;BME280;65395;53.168;18.156;2023-07-09T00:44:31;101552.20;;;13.20;72.27
76553;BME280;65395;53.168;18.156;2023-07-09T00:47:18;101547.11;;;13.25;72.60
76553;BME280;65395;53.168;18.156;2023-07-09T00:49:46;101547.38;;;13.30;72.57
76553;BME280;65395;53.168;18.156;2023-07-09T00:52:24;101549.02;;;13.31;71.95
76553;BME280;65395;53.168;18.156;2023-07-09T00:54:56;101546.98;;;13.27;71.83
76553;BME280;65395;53.168;18.156;2023-07-09T00:57:26;101544.74;;;13.24;71.98
76553;BME280;65395;53.168;18.156;2023-07-09T00:59:57;101547.73;;;13.21;71.99
76553;BME280;65395;53.168;18.156;2023-07-09T01:02:27;101548.39;;;13.19;72.43
76553;BME280;65395;53.168;18.156;2023-07-09T01:04:59;101547.18;;;13.18;72.63
76553;BME280;65395;53.168;18.156;2023-07-09T01:07:28;101547.66;;;13.16;72.55
76553;BME280;65395;53.168;18.156;2023-07-09T01:09:55;101545.95;;;13.14;72.72
76553;BME280;65395;53.168;18.156;2023-07-09T01:12:23;101550.70;;;13.10;72.87
76553;BME280;65395;53.168;18.156;2023-07-09T01:14:53;101552.70;;;13.06;72.89
76553;BME280;65395;53.168;18.156;2023-07-09T01:17:28;101549.79;;;13.03;73.14
76553;BME280;65395;53.168;18.156;2023-07-09T01:19:56;101548.98;;;13.03;73.53
76553;BME280;65395;53.168;18.156;2023-07-09T01:22:24;101554.55;;;13.04;73.65
76553;BME280;65395;53.168;18.156;2023-07-09T01:24:57;101556.30;;;13.07;73.93
76553;BME280;65395;53.168;18.156;2023-07-09T01:27:37;101552.64;;;13.09;73.99
76553;BME280;65395;53.168;18.156;2023-07-09T01:30:20;101558.80;;;13.10;74.20
76553;BME280;65395;53.168;18.156;2023-07-09T01:32:50;101561.64;;;13.12;74.24
76553;BME280;65395;53.168;18.156;2023-07-09T01:35:20;101560.34;;;13.15;74.77
76553;BME280;65395;53.168;18.156;2023-07-09T01:37:48;101558.70;;;13.20;74.97
76553;BME280;65395;53.168;18.156;2023-07-09T01:40:18;101553.11;;;13.25;75.17
76553;BME280;65395;53.168;18.156;2023-07-09T01:42:45;101556.33;;;13.30;75.49
76553;BME280;65395;53.168;18.156;2023-07-09T01:45:13;101553.21;;;13.34;75.34
76553;BME280;65395;53.168;18.156;2023-07-09T01:47:40;101553.96;;;13.39;75.59
76553;BME280;65395;53.168;18.156;2023-07-09T01:50:07;101557.20;;;13.44;75.65
76553;BME280;65395;53.168;18.156;2023-07-09T01:52:34;101559.61;;;13.46;75.57
76553;BME280;65395;53.168;18.156;2023-07-09T01:55:02;101559.36;;;13.49;75.66
76553;BME280;65395;53.168;18.156;2023-07-09T01:57:31;101560.39;;;13.52;75.75
76553;BME280;65395;53.168;18.156;2023-07-09T02:00:05;101565.27;;;13.55;75.82
76553;BME280;65395;53.168;18.156;2023-07-09T02:02:41;101571.66;;;13.58;75.89
76553;BME280;65395;53.168;18.156;2023-07-09T02:05:12;101572.64;;;13.59;75.58
76553;BME280;65395;53.168;18.156;2023-07-09T02:07:40;101573.60;;;13.60;75.57
76553;BME280;65395;53.168;18.156;2023-07-09T02:10:07;101577.46;;;13.60;75.54
76553;BME280;65395;53.168;18.156;2023-07-09T02:12:34;101580.29;;;13.58;75.55
76553;BME280;65395;53.168;18.156;2023-07-09T02:15:02;101581.10;;;13.56;75.69
76553;BME280;65395;53.168;18.156;2023-07-09T02:17:29;101587.13;;;13.57;75.93
76553;BME280;65395;53.168;18.156;2023-07-09T02:19:55;101584.58;;;13.58;76.17
76553;BME280;65395;53.168;18.156;2023-07-09T02:22:22;101584.67;;;13.60;76.08
76553;BME280;65395;53.168;18.156;2023-07-09T02:24:49;101577.89;;;13.60;76.30
76553;BME280;65395;53.168;18.156;2023-07-09T02:27:18;101580.25;;;13.62;76.37
76553;BME280;65395;53.168;18.156;2023-07-09T02:29:45;101583.31;;;13.62;76.49
76553;BME280;65395;53.168;18.156;2023-07-09T02:32:22;101583.56;;;13.63;76.76
76553;BME280;65395;53.168;18.156;2023-07-09T02:34:49;101583.35;;;13.63;76.62
76553;BME280;65395;53.168;18.156;2023-07-09T02:37:21;101577.95;;;13.64;76.73
76553;BME280;65395;53.168;18.156;2023-07-09T02:39:48;101583.90;;;13.62;76.80
76553;BME280;65395;53.168;18.156;2023-07-09T02:42:18;101586.81;;;13.62;76.89
76553;BME280;65395;53.168;18.156;2023-07-09T02:44:45;101586.60;;;13.62;76.90
76553;BME280;65395;53.168;18.156;2023-07-09T02:47:13;101588.84;;;13.61;77.00
76553;BME280;65395;53.168;18.156;2023-07-09T02:49:40;101590.05;;;13.61;77.16
76553;BME280;65395;53.168;18.156;2023-07-09T02:52:08;101586.14;;;13.61;77.22
76553;BME280;65395;53.168;18.156;2023-07-09T02:54:35;101585.67;;;13.60;77.12
76553;BME280;65395;53.168;18.156;2023-07-09T02:57:02;101586.05;;;13.60;77.27
76553;BME280;65395;53.168;18.156;2023-07-09T02:59:29;101588.54;;;13.60;77.13
76553;BME280;65395;53.168;18.156;2023-07-09T03:01:56;101595.27;;;13.60;76.99
76553;BME280;65395;53.168;18.156;2023-07-09T03:04:23;101602.91;;;13.60;76.97
76553;BME280;65395;53.168;18.156;2023-07-09T03:06:51;101602.90;;;13.60;77.16
76553;BME280;65395;53.168;18.156;2023-07-09T03:09:19;101603.63;;;13.60;77.40
76553;BME280;65395;53.168;18.156;2023-07-09T03:11:46;101604.89;;;13.61;77.48
76553;BME280;65395;53.168;18.156;2023-07-09T03:14:13;101605.05;;;13.61;77.50
76553;BME280;65395;53.168;18.156;2023-07-09T03:16:40;101606.33;;;13.61;77.16
76553;BME280;65395;53.168;18.156;2023-07-09T03:19:07;101610.46;;;13.62;77.37
76553;BME280;65395;53.168;18.156;2023-07-09T03:21:34;101609.77;;;13.62;77.28
76553;BME280;65395;53.168;18.156;2023-07-09T03:24:01;101613.14;;;13.63;77.37
76553;BME280;65395;53.168;18.156;2023-07-09T03:26:28;101616.10;;;13.65;77.51
76553;BME280;65395;53.168;18.156;2023-07-09T03:28:55;101617.59;;;13.68;77.56
76553;BME280;65395;53.168;18.156;2023-07-09T03:31:22;101618.24;;;13.71;77.68
76553;BME280;65395;53.168;18.156;2023-07-09T03:33:50;101624.28;;;13.75;77.91
76553;BME280;65395;53.168;18.156;2023-07-09T03:36:18;101627.33;;;13.80;77.76
76553;BME280;65395;53.168;18.156;2023-07-09T03:38:47;101623.74;;;13.83;77.56
76553;BME280;65395;53.168;18.156;2023-07-09T03:41:15;101623.37;;;13.87;77.67
76553;BME280;65395;53.168;18.156;2023-07-09T03:43:42;101625.50;;;13.90;77.53
76553;BME280;65395;53.168;18.156;2023-07-09T03:46:09;101629.77;;;13.94;77.44
76553;BME280;65395;53.168;18.156;2023-07-09T03:48:35;101628.60;;;13.98;77.52
76553;BME280;65395;53.168;18.156;2023-07-09T03:51:02;101625.15;;;14.02;77.44
76553;BME280;65395;53.168;18.156;2023-07-09T03:53:29;101626.57;;;14.07;77.42
76553;BME280;65395;53.168;18.156;2023-07-09T03:55:56;101627.64;;;14.12;77.42
76553;BME280;65395;53.168;18.156;2023-07-09T03:58:23;101628.52;;;14.16;77.53
76553;BME280;65395;53.168;18.156;2023-07-09T04:00:52;101631.33;;;14.21;77.36
76553;BME280;65395;53.168;18.156;2023-07-09T04:03:21;101629.52;;;14.26;77.46
76553;BME280;65395;53.168;18.156;2023-07-09T04:05:48;101625.11;;;14.32;77.46
76553;BME280;65395;53.168;18.156;2023-07-09T04:08:15;101625.62;;;14.37;77.30
76553;BME280;65395;53.168;18.156;2023-07-09T04:10:42;101629.90;;;14.43;77.28
76553;BME280;65395;53.168;18.156;2023-07-09T04:13:09;101631.46;;;14.48;77.27
76553;BME280;65395;53.168;18.156;2023-07-09T04:15:35;101632.89;;;14.53;77.40
76553;BME280;65395;53.168;18.156;2023-07-09T04:18:02;101628.67;;;14.55;77.28
76553;BME280;65395;53.168;18.156;2023-07-09T04:20:29;101641.98;;;14.64;77.23
76553;BME280;65395;53.168;18.156;2023-07-09T04:22:56;101646.69;;;14.68;77.18
76553;BME280;65395;53.168;18.156;2023-07-09T04:25:23;101649.30;;;14.74;77.31
76553;BME280;65395;53.168;18.156;2023-07-09T04:27:50;101650.98;;;14.79;77.13
76553;BME280;65395;53.168;18.156;2023-07-09T04:30:17;101648.59;;;14.83;77.04
76553;BME280;65395;53.168;18.156;2023-07-09T04:32:44;101644.00;;;14.88;76.92
76553;BME280;65395;53.168;18.156;2023-07-09T04:35:13;101641.84;;;14.91;77.17
76553;BME280;65395;53.168;18.156;2023-07-09T04:37:40;101643.33;;;14.93;77.18
76553;BME280;65395;53.168;18.156;2023-07-09T04:40:09;101648.77;;;14.95;77.01
76553;BME280;65395;53.168;18.156;2023-07-09T04:42:39;101649.56;;;14.98;76.91
76553;BME280;65395;53.168;18.156;2023-07-09T04:45:09;101647.17;;;15.03;76.87
76553;BME280;65395;53.168;18.156;2023-07-09T04:47:37;101642.69;;;15.07;76.72
76553;BME280;65395;53.168;18.156;2023-07-09T04:50:06;101636.63;;;15.10;76.71
76553;BME280;65395;53.168;18.156;2023-07-09T04:52:34;101644.41;;;15.15;76.73
76553;BME280;65395;53.168;18.156;2023-07-09T04:55:01;101649.33;;;15.20;76.52
76553;BME280;65395;53.168;18.156;2023-07-09T04:57:28;101650.73;;;15.25;76.52
76553;BME280;65395;53.168;18.156;2023-07-09T04:59:55;101656.75;;;15.30;76.47
76553;BME280;65395;53.168;18.156;2023-07-09T05:02:22;101660.44;;;15.36;76.55
76553;BME280;65395;53.168;18.156;2023-07-09T05:04:49;101669.11;;;15.42;76.61
76553;BME280;65395;53.168;18.156;2023-07-09T05:07:15;101673.73;;;15.46;76.25
76553;BME280;65395;53.168;18.156;2023-07-09T05:09:42;101671.30;;;15.51;76.37
76553;BME280;65395;53.168;18.156;2023-07-09T05:12:09;101671.36;;;15.56;76.37
76553;BME280;65395;53.168;18.156;2023-07-09T05:14:36;101672.39;;;15.61;76.31
76553;BME280;65395;53.168;18.156;2023-07-09T05:17:03;101671.69;;;15.66;76.22
76553;BME280;65395;53.168;18.156;2023-07-09T05:19:31;101669.45;;;15.71;76.01
76553;BME280;65395;53.168;18.156;2023-07-09T05:21:57;101668.34;;;15.76;76.23
76553;BME280;65395;53.168;18.156;2023-07-09T05:24:24;101669.09;;;15.82;75.92
76553;BME280;65395;53.168;18.156;2023-07-09T05:26:51;101668.45;;;15.88;75.90
76553;BME280;65395;53.168;18.156;2023-07-09T05:29:17;101667.25;;;15.95;75.83
76553;BME280;65395;53.168;18.156;2023-07-09T05:31:44;101670.14;;;16.02;75.55
76553;BME280;65395;53.168;18.156;2023-07-09T05:34:11;101677.76;;;16.09;75.40
76553;BME280;65395;53.168;18.156;2023-07-09T05:36:37;101675.55;;;16.16;75.01
76553;BME280;65395;53.168;18.156;2023-07-09T05:39:04;101674.97;;;16.24;74.94
76553;BME280;65395;53.168;18.156;2023-07-09T05:41:31;101671.67;;;16.31;74.51
76553;BME280;65395;53.168;18.156;2023-07-09T05:43:57;101671.90;;;16.38;74.14
76553;BME280;65395;53.168;18.156;2023-07-09T05:46:24;101669.30;;;16.45;73.92
76553;BME280;65395;53.168;18.156;2023-07-09T05:48:51;101669.08;;;16.52;73.64
76553;BME280;65395;53.168;18.156;2023-07-09T05:51:18;101675.14;;;16.60;73.56
76553;BME280;65395;53.168;18.156;2023-07-09T05:53:44;101668.31;;;16.67;73.00
76553;BME280;65395;53.168;18.156;2023-07-09T05:56:11;101668.36;;;16.75;72.23
76553;BME280;65395;53.168;18.156;2023-07-09T05:58:38;101661.54;;;16.82;71.56
76553;BME280;65395;53.168;18.156;2023-07-09T06:01:05;101662.10;;;16.89;71.13
76553;BME280;65395;53.168;18.156;2023-07-09T06:03:32;101662.64;;;16.98;71.26
76553;BME280;65395;53.168;18.156;2023-07-09T06:06:00;101661.58;;;17.07;70.86
76553;BME280;65395;53.168;18.156;2023-07-09T06:08:26;101660.67;;;17.15;70.52
76553;BME280;65395;53.168;18.156;2023-07-09T06:10:56;101664.46;;;17.23;70.34
76553;BME280;65395;53.168;18.156;2023-07-09T06:13:24;101669.19;;;17.33;70.01
76553;BME280;65395;53.168;18.156;2023-07-09T06:15:52;101671.94;;;17.40;69.86
76553;BME280;65395;53.168;18.156;2023-07-09T06:18:20;101671.81;;;17.47;69.20
76553;BME280;65395;53.168;18.156;2023-07-09T06:20:49;101672.82;;;17.55;68.64
76553;BME280;65395;53.168;18.156;2023-07-09T06:23:17;101672.67;;;17.62;68.78
76553;BME280;65395;53.168;18.156;2023-07-09T06:25:45;101673.91;;;17.70;68.13
76553;BME280;65395;53.168;18.156;2023-07-09T06:28:15;101673.04;;;17.77;67.61
76553;BME280;65395;53.168;18.156;2023-07-09T06:30:43;101674.02;;;17.84;66.49
76553;BME280;65395;53.168;18.156;2023-07-09T06:33:11;101667.04;;;17.89;66.68
76553;BME280;65395;53.168;18.156;2023-07-09T06:35:39;101665.08;;;17.96;66.81
76553;BME280;65395;53.168;18.156;2023-07-09T06:38:11;101666.52;;;18.03;66.60
76553;BME280;65395;53.168;18.156;2023-07-09T06:40:38;101668.17;;;18.11;65.77
76553;BME280;65395;53.168;18.156;2023-07-09T06:43:05;101669.11;;;18.18;66.06
76553;BME280;65395;53.168;18.156;2023-07-09T06:45:33;101674.37;;;18.26;65.91
76553;BME280;65395;53.168;18.156;2023-07-09T06:48:00;101673.00;;;18.34;65.67
76553;BME280;65395;53.168;18.156;2023-07-09T06:50:27;101671.61;;;18.42;65.15
76553;BME280;65395;53.168;18.156;2023-07-09T06:52:54;101676.29;;;18.49;64.71
76553;BME280;65395;53.168;18.156;2023-07-09T06:55:21;101675.25;;;18.55;63.64
76553;BME280;65395;53.168;18.156;2023-07-09T06:57:48;101674.88;;;18.60;63.18
76553;BME280;65395;53.168;18.156;2023-07-09T07:00:15;101679.12;;;18.66;63.04
76553;BME280;65395;53.168;18.156;2023-07-09T07:02:41;101683.11;;;18.73;63.30
76553;BME280;65395;53.168;18.156;2023-07-09T07:05:08;101674.44;;;18.77;63.31
76553;BME280;65395;53.168;18.156;2023-07-09T07:07:35;101678.41;;;18.87;62.90
76553;BME280;65395;53.168;18.156;2023-07-09T07:10:02;101682.74;;;18.94;62.18
76553;BME280;65395;53.168;18.156;2023-07-09T07:12:41;101681.70;;;19.00;61.89
76553;BME280;65395;53.168;18.156;2023-07-09T07:15:09;101680.17;;;19.03;61.91
76553;BME280;65395;53.168;18.156;2023-07-09T07:17:36;101680.16;;;19.08;61.53
76553;BME280;65395;53.168;18.156;2023-07-09T07:20:03;101679.20;;;19.13;62.05
76553;BME280;65395;53.168;18.156;2023-07-09T07:22:30;101679.12;;;19.18;62.09
76553;BME280;65395;53.168;18.156;2023-07-09T07:24:57;101678.67;;;19.24;61.77
76553;BME280;65395;53.168;18.156;2023-07-09T07:27:23;101676.80;;;19.30;61.16
76553;BME280;65395;53.168;18.156;2023-07-09T07:29:50;101680.02;;;19.37;61.10
76553;BME280;65395;53.168;18.156;2023-07-09T07:32:17;101680.86;;;19.42;60.44
76553;BME280;65395;53.168;18.156;2023-07-09T07:34:43;101678.48;;;19.47;60.31
76553;BME280;65395;53.168;18.156;2023-07-09T07:37:10;101679.23;;;19.54;60.10
76553;BME280;65395;53.168;18.156;2023-07-09T07:39:38;101674.70;;;19.59;60.22
76553;BME280;65395;53.168;18.156;2023-07-09T07:42:05;101667.67;;;19.63;60.44
76553;BME280;65395;53.168;18.156;2023-07-09T07:44:32;101671.62;;;19.76;60.28
76553;BME280;65395;53.168;18.156;2023-07-09T07:46:58;101674.38;;;19.84;59.69
76553;BME280;65395;53.168;18.156;2023-07-09T07:49:27;101672.73;;;19.88;59.97
76553;BME280;65395;53.168;18.156;2023-07-09T07:51:53;101674.17;;;19.94;59.72
76553;BME280;65395;53.168;18.156;2023-07-09T07:54:20;101669.76;;;19.94;59.30
76553;BME280;65395;53.168;18.156;2023-07-09T07:56:46;101675.16;;;20.01;59.18
76553;BME280;65395;53.168;18.156;2023-07-09T07:59:13;101677.34;;;20.06;58.84
76553;BME280;65395;53.168;18.156;2023-07-09T08:01:40;101676.60;;;20.14;58.63
76553;BME280;65395;53.168;18.156;2023-07-09T08:04:07;101679.35;;;20.23;58.23
76553;BME280;65395;53.168;18.156;2023-07-09T08:06:34;101680.27;;;20.29;57.86
76553;BME280;65395;53.168;18.156;2023-07-09T08:09:02;101677.23;;;20.38;56.71
76553;BME280;65395;53.168;18.156;2023-07-09T08:11:29;101672.97;;;20.49;56.78
76553;BME280;65395;53.168;18.156;2023-07-09T08:13:58;101666.68;;;20.59;56.59
76553;BME280;65395;53.168;18.156;2023-07-09T08:16:25;101671.10;;;20.67;56.07
76553;BME280;65395;53.168;18.156;2023-07-09T08:18:52;101668.52;;;20.74;55.72
76553;BME280;65395;53.168;18.156;2023-07-09T08:21:19;101663.27;;;20.83;55.29
76553;BME280;65395;53.168;18.156;2023-07-09T08:23:45;101666.92;;;20.93;55.04
76553;BME280;65395;53.168;18.156;2023-07-09T08:26:12;101674.58;;;21.01;53.42
76553;BME280;65395;53.168;18.156;2023-07-09T08:28:39;101670.48;;;21.08;52.68
76553;BME280;65395;53.168;18.156;2023-07-09T08:31:05;101669.35;;;21.15;52.57
76553;BME280;65395;53.168;18.156;2023-07-09T08:33:32;101660.30;;;21.24;51.96
76553;BME280;65395;53.168;18.156;2023-07-09T08:36:00;101660.54;;;21.35;52.32
76553;BME280;65395;53.168;18.156;2023-07-09T08:38:27;101654.40;;;21.44;52.02
76553;BME280;65395;53.168;18.156;2023-07-09T08:40:58;101654.63;;;21.54;51.51
76553;BME280;65395;53.168;18.156;2023-07-09T08:43:35;101659.02;;;21.63;51.55
76553;BME280;65395;53.168;18.156;2023-07-09T08:48:56;101655.01;;;21.77;49.03
76553;BME280;65395;53.168;18.156;2023-07-09T08:51:31;101656.17;;;21.84;47.80
76553;BME280;65395;53.168;18.156;2023-07-09T08:54:01;101656.94;;;21.91;48.27
76553;BME280;65395;53.168;18.156;2023-07-09T08:56:31;101658.81;;;22.00;47.68
76553;BME280;65395;53.168;18.156;2023-07-09T08:59:01;101661.90;;;22.10;47.60
76553;BME280;65395;53.168;18.156;2023-07-09T09:01:33;101657.60;;;22.21;47.34
76553;BME280;65395;53.168;18.156;2023-07-09T09:04:13;101658.13;;;22.30;47.60
76553;BME280;65395;53.168;18.156;2023-07-09T09:06:44;101661.05;;;22.41;47.08
76553;BME280;65395;53.168;18.156;2023-07-09T09:14:57;101663.95;;;22.80;46.06
76553;BME280;65395;53.168;18.156;2023-07-09T09:17:26;101662.14;;;22.89;45.45
76553;BME280;65395;53.168;18.156;2023-07-09T09:19:59;101659.34;;;22.97;45.59
76553;BME280;65395;53.168;18.156;2023-07-09T09:22:33;101654.64;;;23.02;44.05
76553;BME280;65395;53.168;18.156;2023-07-09T09:25:16;101655.77;;;23.10;43.83
76553;BME280;65395;53.168;18.156;2023-07-09T09:27:45;101644.71;;;23.22;43.53
76553;BME280;65395;53.168;18.156;2023-07-09T09:30:19;101641.34;;;23.31;43.71
76553;BME280;65395;53.168;18.156;2023-07-09T09:32:54;101636.95;;;23.42;42.07
76553;BME280;65395;53.168;18.156;2023-07-09T09:35:34;101643.16;;;23.54;41.76
76553;BME280;65395;53.168;18.156;2023-07-09T09:38:02;101643.45;;;23.63;40.72
76553;BME280;65395;53.168;18.156;2023-07-09T09:40:36;101643.67;;;23.69;39.80
76553;BME280;65395;53.168;18.156;2023-07-09T09:43:13;101642.02;;;23.74;40.75
76553;BME280;65395;53.168;18.156;2023-07-09T09:45:43;101637.98;;;23.85;41.08
76553;BME280;65395;53.168;18.156;2023-07-09T09:48:28;101633.27;;;23.98;40.39
76553;BME280;65395;53.168;18.156;2023-07-09T09:50:56;101635.36;;;24.11;40.73
76553;BME280;65395;53.168;18.156;2023-07-09T09:53:28;101641.33;;;24.24;39.97
76553;BME280;65395;53.168;18.156;2023-07-09T09:55:56;101636.91;;;24.26;38.45
76553;BME280;65395;53.168;18.156;2023-07-09T09:58:28;101642.92;;;24.23;39.13
76553;BME280;65395;53.168;18.156;2023-07-09T10:00:57;101642.38;;;24.30;39.32
76553;BME280;65395;53.168;18.156;2023-07-09T10:03:34;101642.08;;;24.37;38.39
76553;BME280;65395;53.168;18.156;2023-07-09T10:06:10;101639.55;;;24.42;38.25
76553;BME280;65395;53.168;18.156;2023-07-09T10:08:54;101635.42;;;24.47;37.98
76553;BME280;65395;53.168;18.156;2023-07-09T10:14:33;101645.76;;;24.59;36.94
76553;BME280;65395;53.168;18.156;2023-07-09T10:17:13;101649.27;;;24.69;37.25
76553;BME280;65395;53.168;18.156;2023-07-09T10:19:52;101646.48;;;24.74;35.38
76553;BME280;65395;53.168;18.156;2023-07-09T10:28:30;101651.67;;;25.18;35.65
76553;BME280;65395;53.168;18.156;2023-07-09T10:31:22;101657.45;;;25.36;35.19
76553;BME280;65395;53.168;18.156;2023-07-09T10:39:33;101656.33;;;25.54;34.05
76553;BME280;65395;53.168;18.156;2023-07-09T10:42:01;101657.91;;;25.57;32.84
76553;BME280;65395;53.168;18.156;2023-07-09T10:44:35;101650.80;;;25.62;32.60
76553;BME280;65395;53.168;18.156;2023-07-09T10:47:06;101650.17;;;25.70;32.06
76553;BME280;65395;53.168;18.156;2023-07-09T10:49:40;101648.71;;;25.82;31.70
76553;BME280;65395;53.168;18.156;2023-07-09T10:52:25;101649.54;;;25.90;31.81
76553;BME280;65395;53.168;18.156;2023-07-09T10:55:05;101651.25;;;26.02;31.76
76553;BME280;65395;53.168;18.156;2023-07-09T10:57:48;101646.40;;;26.11;31.35
76553;BME280;65395;53.168;18.156;2023-07-09T11:00:19;101645.08;;;26.28;31.01
76553;BME280;65395;53.168;18.156;2023-07-09T11:02:51;101647.09;;;26.46;31.04
76553;BME280;65395;53.168;18.156;2023-07-09T11:05:22;101642.23;;;26.60;30.56
76553;BME280;65395;53.168;18.156;2023-07-09T11:07:59;101646.27;;;26.63;30.22
76553;BME280;65395;53.168;18.156;2023-07-09T11:10:30;101641.52;;;26.67;30.31
76553;BME280;65395;53.168;18.156;2023-07-09T11:13:02;101642.10;;;26.70;30.56
76553;BME280;65395;53.168;18.156;2023-07-09T11:15:35;101641.49;;;26.71;30.52
76553;BME280;65395;53.168;18.156;2023-07-09T11:18:07;101641.79;;;26.74;30.66
76553;BME280;65395;53.168;18.156;2023-07-09T11:20:43;101642.65;;;26.83;30.23
76553;BME280;65395;53.168;18.156;2023-07-09T11:23:22;101642.67;;;26.92;30.54
76553;BME280;65395;53.168;18.156;2023-07-09T11:28:39;101641.66;;;27.09;30.46
76553;BME280;65395;53.168;18.156;2023-07-09T11:31:17;101640.46;;;27.13;30.86
76553;BME280;65395;53.168;18.156;2023-07-09T11:33:48;101640.16;;;27.21;30.83
76553;BME280;65395;53.168;18.156;2023-07-09T11:36:26;101640.45;;;27.28;30.85
76553;BME280;65395;53.168;18.156;2023-07-09T11:38:53;101643.33;;;27.36;30.77
76553;BME280;65395;53.168;18.156;2023-07-09T11:44:10;101637.96;;;27.51;30.73
76553;BME280;65395;53.168;18.156;2023-07-09T11:49:23;101633.84;;;27.82;30.68
76553;BME280;65395;53.168;18.156;2023-07-09T11:51:55;101634.67;;;27.99;30.58
76553;BME280;65395;53.168;18.156;2023-07-09T11:54:24;101632.05;;;28.17;30.64
76553;BME280;65395;53.168;18.156;2023-07-09T11:56:59;101625.94;;;28.38;30.22
76553;BME280;65395;53.168;18.156;2023-07-09T11:59:28;101627.75;;;28.62;30.02
76553;BME280;65395;53.168;18.156;2023-07-09T12:01:55;101625.55;;;28.82;29.66
76553;BME280;65395;53.168;18.156;2023-07-09T12:04:31;101622.79;;;29.03;29.27
76553;BME280;65395;53.168;18.156;2023-07-09T12:07:00;101618.63;;;29.19;29.22
76553;BME280;65395;53.168;18.156;2023-07-09T12:09:35;101616.39;;;29.27;28.68
76553;BME280;65395;53.168;18.156;2023-07-09T12:12:17;101609.78;;;29.34;29.08
76553;BME280;65395;53.168;18.156;2023-07-09T12:14:44;101601.84;;;29.55;29.03
76553;BME280;65395;53.168;18.156;2023-07-09T12:17:11;101599.88;;;29.81;28.78
76553;BME280;65395;53.168;18.156;2023-07-09T12:19:38;101603.14;;;30.08;28.22
76553;BME280;65395;53.168;18.156;2023-07-09T12:22:10;101600.67;;;30.19;27.73
76553;BME280;65395;53.168;18.156;2023-07-09T12:24:42;101596.11;;;30.36;27.72
76553;BME280;65395;53.168;18.156;2023-07-09T12:27:20;101594.69;;;30.56;28.01
76553;BME280;65395;53.168;18.156;2023-07-09T12:29:50;101596.40;;;30.83;27.90
76553;BME280;65395;53.168;18.156;2023-07-09T12:32:18;101592.38;;;31.02;27.55
76553;BME280;65395;53.168;18.156;2023-07-09T12:34:53;101594.46;;;31.13;26.96
76553;BME280;65395;53.168;18.156;2023-07-09T12:37:21;101590.90;;;31.19;27.24
76553;BME280;65395;53.168;18.156;2023-07-09T12:39:51;101594.11;;;31.34;26.95
76553;BME280;65395;53.168;18.156;2023-07-09T12:42:26;101592.33;;;31.54;26.54
76553;BME280;65395;53.168;18.156;2023-07-09T12:44:56;101589.41;;;31.79;26.46
76553;BME280;65395;53.168;18.156;2023-07-09T12:47:24;101590.02;;;32.02;25.78
76553;BME280;65395;53.168;18.156;2023-07-09T12:50:00;101589.49;;;32.12;25.79
76553;BME280;65395;53.168;18.156;2023-07-09T12:52:27;101584.89;;;32.25;25.77
76553;BME280;65395;53.168;18.156;2023-07-09T12:54:59;101580.75;;;32.43;25.34
76553;BME280;65395;53.168;18.156;2023-07-09T12:57:28;101577.30;;;32.56;25.03
76553;BME280;65395;53.168;18.156;2023-07-09T12:59:56;101573.80;;;32.65;25.17
76553;BME280;65395;53.168;18.156;2023-07-09T13:02:26;101573.22;;;32.78;24.81
76553;BME280;65395;53.168;18.156;2023-07-09T13:05:05;101569.41;;;32.87;24.72
76553;BME280;65395;53.168;18.156;2023-07-09T13:07:37;101572.39;;;32.90;24.92
76553;BME280;65395;53.168;18.156;2023-07-09T13:10:15;101575.02;;;32.97;24.55
76553;BME280;65395;53.168;18.156;2023-07-09T13:12:46;101570.17;;;32.97;24.64
76553;BME280;65395;53.168;18.156;2023-07-09T13:15:25;101566.48;;;33.10;24.71
76553;BME280;65395;53.168;18.156;2023-07-09T13:18:02;101565.64;;;33.26;24.38
76553;BME280;65395;53.168;18.156;2023-07-09T13:20:30;101567.83;;;33.39;24.13
76553;BME280;65395;53.168;18.156;2023-07-09T13:22:58;101559.48;;;33.51;23.81
76553;BME280;65395;53.168;18.156;2023-07-09T13:25:25;101560.27;;;33.60;23.50